Latest Weather Observations for Khancoban

IDN60801

Issued at 10:33 am EDT Friday 23 February 2024 (issued every 10 minutes, with the page automatically refreshed every 10 minutes)

About weather observations | Map of weather stations | Latest weather observations for NSW | Other Formats
Station Details ID: 072162 Name: KHANCOBAN AWS Lat: -36.23 Lon: 148.14 Height: 339.3 m
Data from the previous 72 hours. | See also: Recent months at Khancoban
Date/Time
EDT
Temp
°C
App
Temp
°C
Dew
Point
°C
Rel
Hum
%
Delta-T
°C
Wind Press
QNH
hPa
Press
MSL
hPa
Rain since
9am
mm
Dir  Spd
km/h
Gust
km/h
Spd
kts
Gust
kts
23/10:30am 23.6 25.5 18.9 75 3.0 N 7 11 4 6 1008.1 1006.6 0.2
23/10:00am 21.4 23.7 19.5 89 1.2 E 6 7 3 4 1007.9 1006.4 0.2
23/09:30am 20.1 22.0 18.6 91 0.9 NW 6 9 3 5 1007.8 1006.3 0.2
23/09:00am 19.6 22.3 18.6 94 0.6 SSE 2 9 1 5 1007.6 1006.1 3.0
23/08:30am 19.2 20.5 18.4 95 0.5 WSW 9 13 5 7 1007.5 1006.0 3.0
23/08:00am 19.2 21.1 17.7 91 0.9 E 4 7 2 4 1007.9 1006.4 3.0
23/07:30am 19.1 19.7 17.8 92 0.8 N 11 17 6 9 1008.3 1006.8 2.8
23/07:00am 19.0 19.1 17.5 91 0.9 S 13 17 7 9 1008.2 1006.7 2.6
23/06:30am 19.6 20.3 17.0 85 1.6 SSE 9 17 5 9 1008.4 1006.9 1.8
23/06:00am 20.1 19.8 17.3 84 1.7 ESE 15 30 8 16 1009.3 1007.8 1.6
23/05:36am 19.5 20.8 17.5 88 1.2 NNE 7 33 4 18 1009.6 1008.1 0.8
23/05:30am 19.7 22.1 16.9 84 1.7 CALM 0 0 0 0 1007.5 1006.0 0.8
23/05:00am 20.1 20.7 16.9 82 2.0 SE 9 13 5 7 1007.3 1005.8 0.8
23/04:30am 20.9 20.2 16.5 76 2.7 WSW 15 20 8 11 1007.5 1006.0 0.8
23/04:06am 21.6 18.4 16.3 72 3.3 E 28 50 15 27 1007.8 1006.3 0.8
23/04:00am 21.4 19.0 16.4 73 3.1 E 24 32 13 17 1008.0 1006.5 0.8
23/03:30am 20.1 20.7 16.7 81 2.1 N 9 13 5 7 1010.0 1008.5 0.0
23/03:23am 19.7 20.6 16.5 82 2.0 NE 7 13 4 7 1009.5 1008.0 0.0
23/03:00am 19.6 20.7 15.7 78 2.4 N 4 9 2 5 1007.4 1005.9 0.0
23/02:30am 20.8 22.2 16.4 76 2.7 NNW 4 11 2 6 1008.0 1006.5 0.0
23/02:00am 22.6 21.6 15.7 65 4.2 SSE 15 24 8 13 1008.3 1006.8 0.0
23/01:30am 23.3 21.7 15.1 60 5.0 ENE 17 24 9 13 1009.4 1007.9 0.0
23/01:00am 20.5 21.2 16.1 76 2.7 N 7 9 4 5 1010.7 1009.2 0.0
23/12:30am 20.8 22.7 15.8 73 3.0 CALM 0 0 0 0 1009.1 1007.5 0.0
23/12:00am 19.7 21.8 16.2 80 2.1 CALM 0 0 0 0 1009.2 1007.6 0.0
 
Date/Time
EDT
Temp
°C
App
Temp
°C
Dew
Point
°C
Rel
Hum
%
Delta-T
°C
Wind Press
QNH
hPa
Press
MSL
hPa
Rain since
9am
mm
Dir  Spd
km/h
Gust
km/h
Spd
kts
Gust
kts
22/11:30pm 19.9 21.6 15.3 75 2.8 CALM 0 0 0 0 1009.4 1007.9 0.0
22/11:00pm 20.2 21.7 15.6 75 2.8 N 2 7 1 4 1009.6 1008.1 0.0
22/10:30pm 20.7 22.7 16.1 75 2.8 CALM 0 0 0 0 1009.7 1008.2 0.0
22/10:00pm 21.8 23.9 16.3 71 3.4 CALM 0 0 0 0 1009.6 1008.1 0.0
22/09:30pm 22.7 24.8 16.3 67 3.9 CALM 0 0 0 0 1009.5 1008.0 0.0
22/09:00pm 24.3 26.2 16.6 62 4.8 SW 2 11 1 6 1009.2 1007.6 0.0
22/08:30pm 26.5 27.3 15.8 51 6.6 SSE 6 13 3 7 1009.2 1007.6 0.0
22/08:00pm 28.4 26.3 14.6 43 8.5 ENE 19 22 10 12 1009.0 1007.4 0.0
22/07:30pm 29.8 28.7 14.4 39 9.5 ENE 13 19 7 10 1009.0 1007.4 0.0
22/07:00pm 31.5 31.0 13.7 33 10.9 N 9 13 5 7 1009.0 1007.4 0.0
22/06:30pm 32.0 31.3 14.2 34 11.0 NW 11 20 6 11 1009.0 1007.4 0.0
22/06:00pm 31.6 31.1 13.8 33 10.9 NE 9 19 5 10 1009.1 1007.5 0.0
22/05:30pm 32.2 31.2 13.4 32 11.5 NNW 11 20 6 11 1009.3 1007.8 0.0
22/05:00pm 33.5 32.3 14.0 30 12.1 WNW 13 22 7 12 1009.3 1007.8 0.0
22/04:30pm 32.7 32.7 14.3 32 11.4 NNE 7 19 4 10 1009.6 1008.1 0.0
22/04:00pm 33.6 33.7 16.5 36 11.0 WNW 11 19 6 10 1010.2 1008.7 0.0
22/03:30pm 31.6 31.1 13.8 33 10.9 NNE 9 20 5 11 1010.8 1009.3 0.0
22/03:00pm 31.5 30.7 15.0 36 10.3 NNW 13 22 7 12 1011.5 1010.0 0.0
22/02:30pm 32.3 31.4 14.9 35 10.9 NW 13 22 7 12 1012.2 1010.7 0.0
22/02:00pm 31.1 30.9 14.7 37 10.2 SW 9 17 5 9 1012.6 1011.1 0.0
22/01:30pm 30.4 29.5 14.9 39 9.6 WNW 13 19 7 10 1013.0 1011.5 0.0
22/01:00pm 30.3 29.2 15.2 40 9.4 NW 15 24 8 13 1013.4 1011.9 0.0
22/12:30pm 29.2 28.7 15.0 42 8.8 NW 11 19 6 10 1013.7 1012.2 0.0
22/12:00pm 29.4 29.4 16.2 44 8.3 NNW 11 19 6 10 1014.2 1012.7 0.0
22/11:30am 28.6 28.8 15.8 45 8.0 WSW 9 17 5 9 1014.6 1013.2 0.0
22/11:00am 26.9 27.4 15.6 50 7.0 WSW 7 11 4 6 1015.0 1013.6 0.0
22/10:30am 25.0 25.4 14.8 53 6.2 E 6 9 3 5 1015.5 1014.0 0.0
22/10:00am 23.1 23.2 14.4 58 5.2 NNW 7 11 4 6 1015.8 1014.3 0.0
22/09:30am 21.8 22.3 14.9 65 4.1 N 6 9 3 5 1016.0 1014.5 0.0
22/09:00am 20.1 20.6 15.1 73 3.0 N 6 7 3 4 1016.1 1014.6 0.0
22/08:30am 18.1 18.6 15.0 82 1.8 NNE 6 7 3 4 1016.1 1014.6 0.0
22/08:00am 16.3 17.5 15.0 92 0.8 N 2 7 1 4 1015.9 1014.4 0.0
22/07:30am 14.5 15.6 13.5 94 0.6 CALM 0 0 0 0 1015.7 1014.2 0.0
22/07:00am 13.7 14.7 13.1 96 0.3 CALM 0 0 0 0 1015.5 1014.0 0.0
22/06:30am 14.2 15.3 13.4 95 0.5 CALM 0 0 0 0 1015.0 1013.6 0.0
22/06:00am 14.1 15.1 13.1 94 0.6 CALM 0 0 0 0 1014.9 1013.5 0.0
22/05:30am 14.4 15.4 13.3 93 0.6 CALM 0 0 0 0 1014.8 1013.4 0.0
22/05:00am 14.3 15.3 13.2 93 0.6 CALM 0 0 0 0 1014.7 1013.3 0.0
22/04:30am 15.3 16.6 14.0 92 0.7 CALM 0 0 0 0 1014.8 1013.4 0.0
22/04:00am 15.4 16.6 13.8 90 0.9 CALM 0 0 0 0 1014.8 1013.4 0.0
22/03:30am 15.5 16.4 14.0 91 0.9 N 2 6 1 3 1014.9 1013.5 0.0
22/03:00am 15.8 17.0 13.8 88 1.1 CALM 0 0 0 0 1015.2 1013.7 0.0
22/02:30am 15.6 16.8 13.8 89 1.0 CALM 0 0 0 0 1015.2 1013.7 0.0
22/02:00am 15.7 15.8 13.9 89 1.0 NNW 6 7 3 4 1015.2 1013.7 0.0
22/01:30am 16.6 18.1 14.6 88 1.2 CALM 0 0 0 0 1015.3 1013.8 0.0
22/01:00am 16.8 16.9 14.4 86 1.4 SW 7 11 4 6 1015.6 1014.1 0.0
22/12:30am 16.7 17.5 13.8 83 1.7 N 2 7 1 4 1015.7 1014.2 0.0
22/12:00am 18.3 18.5 14.6 79 2.2 N 7 11 4 6 1015.8 1014.3 0.0
 
Date/Time
EDT
Temp
°C
App
Temp
°C
Dew
Point
°C
Rel
Hum
%
Delta-T
°C
Wind Press
QNH
hPa
Press
MSL
hPa
Rain since
9am
mm
Dir  Spd
km/h
Gust
km/h
Spd
kts
Gust
kts
21/11:30pm 17.7 18.9 13.8 78 2.3 CALM 0 0 0 0 1015.5 1014.0 0.0
21/11:00pm 18.1 18.7 14.2 78 2.3 WSW 4 6 2 3 1015.5 1014.0 0.0
21/10:30pm 19.2 20.6 14.5 74 2.8 CALM 0 0 0 0 1015.3 1013.8 0.0
21/10:00pm 19.2 19.6 14.7 75 2.7 SSE 6 9 3 5 1015.0 1013.6 0.0
21/09:30pm 20.4 21.9 14.7 70 3.4 CALM 0 0 0 0 1014.7 1013.3 0.0
21/09:00pm 21.8 22.1 14.4 63 4.4 SSW 6 9 3 5 1014.4 1013.0 0.0
21/08:30pm 23.7 23.8 14.4 56 5.6 NW 7 9 4 5 1014.2 1012.7 0.0
21/08:00pm 24.5 24.5 13.7 51 6.4 SSE 6 11 3 6 1014.0 1012.5 0.0
21/07:30pm 26.8 26.7 13.9 45 7.8 S 7 11 4 6 1013.6 1012.1 0.0
21/07:00pm 27.8 25.5 14.1 43 8.3 SSW 19 24 10 13 1013.3 1011.8 0.0
21/06:30pm 30.9 30.6 12.8 33 10.9 N 6 13 3 7 1013.2 1011.7 0.0
21/06:00pm 31.2 30.3 12.5 31 11.2 E 9 13 5 7 1013.3 1011.8 0.0
21/05:30pm 31.2 29.4 12.1 31 11.4 N 13 22 7 12 1013.0 1011.5 0.0
21/05:00pm 30.9 29.8 11.8 31 11.3 WNW 9 13 5 7 1013.3 1011.8 0.0
21/04:30pm 31.2 29.5 12.5 31 11.2 NW 13 20 7 11 1013.5 1012.0 0.0
21/04:00pm 31.6 30.3 12.4 31 11.5 W 11 17 6 9 1013.8 1012.3 0.0
21/03:30pm 29.9 28.3 11.4 32 10.8 NW 11 17 6 9 1014.2 1012.7 0.0
21/03:00pm 30.8 29.9 12.7 33 10.9 WSW 9 20 5 11 1014.8 1013.4 0.0
21/02:30pm 29.7 28.6 10.8 31 11.0 WNW 7 13 4 7 1015.5 1014.0 0.0
21/02:00pm 28.9 27.1 11.0 33 10.4 NW 11 22 6 12 1015.8 1014.3 0.0
21/01:30pm 29.3 27.3 11.4 33 10.5 NNW 13 20 7 11 1016.1 1014.6 0.0
21/01:00pm 28.8 26.3 10.9 33 10.3 NNW 15 20 8 11 1016.6 1015.1 0.0
21/12:30pm 27.7 27.4 14.3 43 8.1 NW 9 13 5 7 1017.0 1015.6 0.0
21/12:00pm 26.2 25.9 14.3 48 7.2 NNE 9 13 5 7 1017.6 1016.2 0.0
21/11:30am 25.3 25.3 14.1 50 6.7 NW 7 13 4 7 1017.8 1016.4 0.0
21/11:00am 24.7 24.8 13.9 51 6.4 N 6 11 3 6 1018.1 1016.7 0.0
21/10:30am 23.3 23.5 14.3 57 5.4 NW 6 9 3 5 1018.5 1017.0 0.0
21/10:00am 21.8 22.2 14.7 64 4.2 W 6 9 3 5 1018.8 1017.3 0.0
21/09:30am 19.9 20.0 14.5 71 3.2 N 7 9 4 5 1019.0 1017.5 0.0
21/09:00am 18.5 19.5 15.4 82 1.8 NNE 4 7 2 4 1018.9 1017.4 0.4
21/08:30am 17.0 18.0 15.3 90 1.0 WSW 4 7 2 4 1018.8 1017.3 0.4
21/08:00am 15.9 16.5 15.3 96 0.4 SSW 6 9 3 5 1018.8 1017.3 0.4
21/07:30am 14.4 15.6 13.8 96 0.3 CALM 0 0 0 0 1018.7 1017.2 0.4
21/07:00am 13.9 14.9 13.1 95 0.4 CALM 0 0 0 0 1018.1 1016.7 0.4
21/06:30am 13.8 13.6 12.9 94 0.5 NE 6 7 3 4 1017.8 1016.4 0.4
21/06:00am 13.5 13.9 12.6 94 0.5 SSW 2 7 1 4 1017.8 1016.4 0.4
21/05:30am 14.0 14.2 13.1 94 0.5 SSE 4 7 2 4 1017.6 1016.2 0.2
21/05:00am 13.7 13.4 12.6 93 0.6 SSE 6 9 3 5 1017.7 1016.3 0.2
21/04:30am 14.7 15.4 13.4 92 0.7 SE 2 7 1 4 1017.6 1016.2 0.2
21/04:00am 14.8 16.0 13.8 94 0.6 CALM 0 0 0 0 1017.8 1016.4 0.2
21/03:30am 14.8 15.5 13.5 92 0.7 NE 2 6 1 3 1017.6 1016.2 0.2
21/03:00am 15.2 15.5 14.4 95 0.5 SSW 6 7 3 4 1018.0 1016.6 0.2
21/02:30am 15.8 16.2 14.8 94 0.6 NE 6 7 3 4 1017.9 1016.5 0.2
21/02:00am 16.0 16.6 15.2 95 0.5 SSE 6 7 3 4 1017.9 1016.5 0.2
21/01:30am 16.6 18.4 15.6 94 0.6 CALM 0 0 0 0 1017.8 1016.4 0.2
21/01:00am 17.0 18.9 15.7 92 0.8 CALM 0 0 0 0 1017.9 1016.5 0.2
21/12:30am 17.2 18.1 16.1 93 0.7 NE 6 7 3 4 1018.0 1016.6 0.2
21/12:00am 17.1 18.8 16.3 95 0.5 SE 2 6 1 3 1018.2 1016.8 0.2
 
Date/Time
EDT
Temp
°C
App
Temp
°C
Dew
Point
°C
Rel
Hum
%
Delta-T
°C
Wind Press
QNH
hPa
Press
MSL
hPa
Rain since
9am
mm
Dir  Spd
km/h
Gust
km/h
Spd
kts
Gust
kts
20/11:30pm 17.3 19.0 16.2 93 0.7 NW 2 7 1 4 1018.4 1016.9 0.2
20/11:00pm 17.5 19.7 16.4 93 0.7 CALM 0 0 0 0 1018.6 1017.1 0.2
20/10:30pm 17.6 18.5 16.6 94 0.6 NNW 7 9 4 5 1019.0 1017.5 0.2
20/10:00pm 17.7 16.6 16.4 92 0.8 SSW 17 24 9 13 1018.7 1017.2 0.2
20/09:30pm 18.5 19.4 16.5 88 1.2 ESE 7 15 4 8 1019.1 1017.6 0.2
20/09:00pm 19.4 19.2 15.7 79 2.2 WSW 11 19 6 10 1019.5 1018.0 0.2
20/08:30pm 19.7 20.2 15.6 77 2.5 E 7 11 4 6 1019.1 1017.6 0.0
20/08:00pm 20.3 19.0 14.9 71 3.2 SSW 15 24 8 13 1018.4 1016.9 0.0
20/07:30pm 24.0 21.0 12.0 47 6.9 SSW 19 39 10 21 1017.3 1015.9 0.0
20/07:21pm 25.2 20.5 10.6 39 8.3 W 26 39 14 21 1016.9 1015.4 0.0
20/07:00pm 25.5 19.5 10.1 38 8.7 NE 32 41 17 22 1014.7 1013.3 0.0
20/06:30pm 26.0 19.9 9.8 36 9.1 NE 32 46 17 25 1014.5 1013.1 0.0
20/06:00pm 28.0 23.2 8.8 30 10.7 NE 24 35 13 19 1014.3 1012.8 0.0
20/05:30pm 28.8 24.2 9.5 30 10.9 NE 24 39 13 21 1014.2 1012.7 0.0
20/05:00pm 31.4 30.0 12.2 30 11.5 WNW 11 15 6 8 1013.9 1012.4 0.0
20/04:30pm 32.0 31.0 12.3 30 11.8 WNW 9 19 5 10 1014.1 1012.6 0.0
20/04:00pm 31.7 30.6 12.0 30 11.7 SW 9 20 5 11 1014.4 1013.0 0.0
20/03:30pm 31.7 30.6 12.0 30 11.7 N 9 20 5 11 1014.9 1013.5 0.0
20/03:00pm 30.4 29.1 11.4 31 11.2 WSW 9 17 5 9 1015.6 1014.1 0.0
20/02:30pm 31.1 29.5 12.9 32 11.0 NW 13 24 7 13 1016.2 1014.7 0.0
20/02:00pm 30.4 28.8 12.8 34 10.6 W 13 20 7 11 1016.6 1015.1 0.0
20/01:30pm 30.0 27.9 12.4 34 10.5 WNW 15 26 8 14 1017.0 1015.6 0.0
20/01:00pm 29.0 26.8 12.0 35 10.0 NW 15 20 8 11 1017.5 1016.1 0.0
20/12:30pm 28.1 27.2 11.2 35 9.8 WSW 7 11 4 6 1018.0 1016.6 0.0
20/12:00pm 25.8 26.0 14.6 50 6.8 N 7 11 4 6 1018.7 1017.2 0.0
20/11:30am 26.8 27.3 14.9 48 7.3 WNW 6 11 3 6 1019.0 1017.5 0.0
20/11:00am 25.7 26.0 14.5 50 6.8 NW 6 13 3 7 1019.1 1017.6 0.0

Other formats

Comma delimited format used in spreadsheet applications
http://www.bom.gov.au/fwo/IDN60801/IDN60801.94919.axf

JavaScript Object Notation format (JSON) in row-major order
http://www.bom.gov.au/fwo/IDN60801/IDN60801.94919.json

Data quality

Most of these data are generated automatically and are frequently updated. Quality checks on data are not normally performed. It is possible for incorrect values to appear. Refer to information at About Latest Weather Observations and please check the disclaimer before using these data.